Time;durP1;ratioP1;P1;durP2;ratioP2;P2;SDS_P1;SDS_P2;PMS_P1;PMS_P2;Temp;Humidity;BMP_temperature;BMP_pressure;BME280_temperature;BME280_humidity;BME280_pressure;Samples;Min_cycle;Max_cycle;Signal;HPM_P1;HPM_P2
2022/09/08 00:00:43;;;;;;;1.00;0.20;;;19.10;64.20;21.30;93576.00;;;;10545799;27;45775;-56
2022/09/08 00:06:10;;;;;;;0.85;0.40;;;19.10;64.10;21.30;93586.00;;;;10513904;27;45198;-58
2022/09/08 00:11:32;;;;;;;;;;;19.10;65.00;21.30;93594.00;;;;10542398;27;45101;-58
2022/09/08 00:16:54;;;;;;;0.50;0.30;;;19.10;64.20;21.30;93610.00;;;;10555710;27;45210;-58
2022/09/08 00:22:15;;;;;;;0.98;0.30;;;19.10;64.10;21.20;93619.00;;;;10556270;27;45537;-55
2022/09/08 00:27:35;;;;;;;0.63;0.30;;;19.10;64.20;21.20;93624.00;;;;10555000;27;45162;-57
2022/09/08 00:32:57;;;;;;;1.23;0.32;;;19.10;64.20;21.30;93613.00;;;;10554767;27;45839;-58
2022/09/08 00:38:20;;;;;;;0.32;0.20;;;19.10;64.10;21.20;93609.00;;;;10528141;27;45159;-58
2022/09/08 00:43:43;;;;;;;0.38;0.28;;;19.10;64.10;21.20;93601.00;;;;10513677;27;45871;-57
2022/09/08 00:49:13;;;;;;;0.30;0.20;;;19.10;64.10;21.20;93598.00;;;;10511790;27;45237;-57
2022/09/08 00:54:35;;;;;;;1.08;0.20;;;19.10;64.10;21.20;93575.00;;;;10513017;27;44998;-57
2022/09/08 00:59:56;;;;;;;1.05;0.30;;;19.10;64.00;21.20;93570.00;;;;10509484;27;45762;-55
2022/09/08 01:05:21;;;;;;;0.47;0.20;;;19.10;64.00;21.20;93566.00;;;;10509116;27;45561;-55
2022/09/08 01:16:40;;;;;;;1.13;0.20;;;19.10;64.00;21.20;93534.00;;;;10542387;27;45787;-58
2022/09/08 01:22:18;;;;;;;1.13;0.30;;;19.10;63.90;21.20;93539.00;;;;10554249;27;45181;-58
2022/09/08 01:27:42;;;;;;;0.32;0.20;;;19.10;63.90;21.20;93531.00;;;;10553313;27;45198;-58
2022/09/08 01:33:05;;;;;;;0.15;0.15;;;19.00;63.90;21.20;93526.00;;;;10552492;27;45138;-55
2022/09/08 01:38:25;;;;;;;0.98;0.35;;;19.10;63.90;21.20;93538.00;;;;10527039;27;45692;-58
2022/09/08 01:43:47;;;;;;;0.15;0.10;;;19.10;63.90;21.20;93553.00;;;;10511056;27;45930;-58
2022/09/08 01:49:08;;;;;;;0.85;0.20;;;19.00;63.90;21.20;93547.00;;;;10510218;28;45824;-57
2022/09/08 01:54:29;;;;;;;0.40;0.17;;;19.00;63.90;21.20;93531.00;;;;10511202;28;45858;-56
2022/09/08 01:59:51;;;;;;;0.68;0.30;;;19.00;63.90;21.20;93544.00;;;;10555645;27;45197;-57
2022/09/08 02:05:12;;;;;;;1.10;0.30;;;19.10;63.90;21.20;93543.00;;;;10560982;27;45864;-57
2022/09/08 02:10:32;;;;;;;0.50;0.38;;;19.00;63.80;21.20;93540.00;;;;10559620;27;45204;-58
2022/09/08 02:16:01;;;;;;;0.57;0.30;;;19.00;63.80;21.20;93550.00;;;;10559643;27;45103;-58
2022/09/08 02:21:23;;;;;;;0.30;0.28;;;19.00;63.90;21.20;93546.00;;;;10560484;27;45178;-57
2022/09/08 02:26:44;;;;;;;0.93;0.20;;;19.00;63.80;21.20;93552.00;;;;10559384;27;45730;-56
2022/09/08 02:32:06;;;;;;;0.90;0.20;;;19.00;63.70;21.20;93547.00;;;;10559746;27;45151;-56
2022/09/08 02:37:26;;;;;;;0.68;0.30;;;19.00;63.70;21.20;93551.00;;;;10527936;27;45166;-57
2022/09/08 02:42:48;;;;;;;0.30;0.20;;;19.00;63.70;21.20;93543.00;;;;10525424;27;45284;-58
2022/09/08 02:48:09;;;;;;;0.20;0.20;;;19.00;63.70;21.20;93548.00;;;;10516514;27;45584;-58
2022/09/08 02:53:31;;;;;;;0.25;0.13;;;19.00;63.70;21.10;93515.00;;;;10516530;27;45365;-58
2022/09/08 02:58:54;;;;;;;0.40;0.20;;;19.00;63.70;21.20;93516.00;;;;10516150;27;45416;-58
2022/09/08 03:04:16;;;;;;;0.77;0.32;;;19.00;63.70;21.10;93521.00;;;;10516695;27;45265;-58
2022/09/08 03:09:36;;;;;;;1.65;0.20;;;19.00;63.70;21.10;93535.00;;;;10515710;27;45504;-59
2022/09/08 03:14:57;;;;;;;0.10;0.10;;;19.00;63.70;21.10;93539.00;;;;10515099;27;45794;-58
2022/09/08 03:20:19;;;;;;;1.27;0.28;;;19.00;63.70;21.10;93536.00;;;;10515402;27;45523;-57
2022/09/08 03:25:40;;;;;;;0.30;0.10;;;19.00;63.60;21.10;93538.00;;;;10516078;27;45225;-56
2022/09/08 03:31:00;;;;;;;0.28;0.13;;;19.00;63.60;21.10;93539.00;;;;10515122;27;45161;-58
2022/09/08 03:36:22;;;;;;;0.20;0.10;;;19.00;63.60;21.10;93512.00;;;;10514748;28;45337;-57
2022/09/08 03:41:43;;;;;;;0.28;0.20;;;19.00;63.60;21.10;93525.00;;;;10533681;27;45208;-57
2022/09/08 03:47:03;;;;;;;1.17;0.20;;;19.00;63.60;21.10;93524.00;;;;10514478;27;45258;-58
2022/09/08 03:52:26;;;;;;;0.10;0.10;;;19.00;63.50;21.10;93520.00;;;;10515741;27;45473;-57
2022/09/08 03:57:47;;;;;;;0.10;0.10;;;19.00;63.60;21.10;93526.00;;;;10513717;27;45801;-58
2022/09/08 04:03:08;;;;;;;1.23;0.20;;;19.00;63.60;21.10;93523.00;;;;10514498;27;45773;-56
2022/09/08 04:08:30;;;;;;;0.40;0.20;;;19.00;63.50;21.10;93529.00;;;;10544660;27;45804;-58
2022/09/08 04:13:51;;;;;;;0.77;0.20;;;19.00;63.50;21.10;93543.00;;;;10555166;27;45122;-58
2022/09/08 04:19:15;;;;;;;0.60;0.30;;;19.00;63.50;21.10;93542.00;;;;10555874;27;45185;-58
2022/09/08 04:24:37;;;;;;;0.17;0.10;;;19.00;63.50;21.10;93529.00;;;;10556158;27;45294;-58
2022/09/08 04:29:57;;;;;;;0.38;0.20;;;19.00;63.50;21.10;93532.00;;;;10555178;27;45220;-58
2022/09/08 04:35:18;;;;;;;0.30;0.20;;;19.00;63.50;21.10;93534.00;;;;10535212;27;45015;-58
2022/09/08 04:40:41;;;;;;;0.47;0.20;;;19.00;63.50;21.10;93537.00;;;;10531898;27;45797;-56
2022/09/08 04:46:03;;;;;;;0.65;0.20;;;19.00;63.40;21.10;93538.00;;;;10513442;27;45291;-58
2022/09/08 04:51:25;;;;;;;0.35;0.20;;;19.00;63.40;21.10;93540.00;;;;10513442;27;45135;-58
2022/09/08 04:56:47;;;;;;;0.10;0.10;;;19.00;63.40;21.10;93545.00;;;;10512291;27;45514;-59
2022/09/08 05:02:07;;;;;;;0.10;0.10;;;19.00;63.40;21.10;93554.00;;;;10513405;27;45225;-57
2022/09/08 05:07:28;;;;;;;0.10;0.10;;;19.00;63.30;21.10;93535.00;;;;10512140;27;45234;-58
2022/09/08 05:12:50;;;;;;;1.65;0.10;;;19.00;63.20;21.10;93545.00;;;;10511384;27;45818;-58
2022/09/08 05:18:10;;;;;;;0.17;0.10;;;18.90;63.20;21.10;93558.00;;;;10511849;27;45197;-59
2022/09/08 05:23:31;;;;;;;0.13;0.13;;;19.00;63.10;21.10;93570.00;;;;10511533;27;45161;-57
2022/09/08 05:28:54;;;;;;;0.35;0.10;;;19.00;63.00;21.10;93575.00;;;;10536258;27;45775;-57
2022/09/08 05:34:14;;;;;;;0.20;0.15;;;19.00;63.00;21.10;93577.00;;;;10541875;27;45833;-58
2022/09/08 05:39:35;;;;;;;0.32;0.17;;;19.00;62.80;21.10;93570.00;;;;10516088;27;45175;-57
2022/09/08 05:44:57;;;;;;;0.32;0.15;;;19.00;62.70;21.10;93560.00;;;;10514527;27;45869;-57
2022/09/08 05:50:18;;;;;;;0.30;0.13;;;19.00;62.60;21.10;93573.00;;;;10540151;27;45161;-57
2022/09/08 05:55:39;;;;;;;0.25;0.10;;;19.00;62.60;21.10;93583.00;;;;10552876;27;45257;-58
2022/09/08 06:01:05;;;;;;;0.10;0.10;;;18.90;62.60;21.10;93579.00;;;;10553390;27;45653;-58
2022/09/08 06:06:27;;;;;;;0.15;0.10;;;18.90;62.50;21.10;93593.00;;;;10524311;27;45761;-58
2022/09/08 06:11:47;;;;;;;0.85;0.10;;;19.00;62.40;21.10;93581.00;;;;10509940;27;46033;-56
2022/09/08 06:17:10;;;;;;;0.20;0.10;;;19.00;62.30;21.10;93589.00;;;;10532739;27;45302;-58
2022/09/08 06:22:32;;;;;;;0.00;0.00;;;18.90;62.20;21.10;93602.00;;;;10552469;27;45477;-57
2022/09/08 06:28:01;;;;;;;0.10;0.03;;;18.90;62.20;21.10;93601.00;;;;10551662;27;45209;-57
2022/09/08 06:33:30;;;;;;;0.70;0.10;;;18.90;62.30;21.00;93601.00;;;;10547981;27;45378;-58
2022/09/08 06:38:58;;;;;;;0.10;0.05;;;18.90;62.30;21.10;93615.00;;;;10512305;27;45329;-58
2022/09/08 06:44:22;;;;;;;0.20;0.13;;;18.90;62.20;21.00;93610.00;;;;10518319;27;45340;-58
2022/09/08 06:49:44;;;;;;;1.13;0.10;;;18.90;62.20;21.00;93614.00;;;;10514665;27;45162;-57
2022/09/08 06:55:18;;;;;;;0.43;0.10;;;18.90;62.10;21.00;93590.00;;;;10535274;27;45770;-56
2022/09/08 07:00:47;;;;;;;0.20;0.10;;;18.90;62.20;21.00;93603.00;;;;10516899;27;45249;-56
2022/09/08 07:06:10;;;;;;;0.10;0.10;;;18.90;62.30;21.00;93613.00;;;;10516111;27;45309;-56
2022/09/08 07:11:57;;;;;;;0.13;0.10;;;18.90;62.20;21.00;93604.00;;;;10543380;27;45621;-58
2022/09/08 07:17:29;;;;;;;0.30;0.20;;;18.90;61.30;21.00;93602.00;;;;10550336;27;45281;-56
2022/09/08 07:22:58;;;;;;;0.43;0.20;;;18.90;61.50;20.90;93610.00;;;;10558765;27;45207;-57
2022/09/08 07:28:23;;;;;;;0.57;0.17;;;18.80;61.50;20.90;93597.00;;;;10558093;27;45260;-58
2022/09/08 07:33:46;;;;;;;1.17;0.30;;;18.80;61.50;20.90;93600.00;;;;10550441;27;45112;-58
2022/09/08 07:39:19;;;;;;;1.10;0.15;;;18.80;61.80;21.00;93597.00;;;;10516941;27;45233;-58
2022/09/08 07:44:40;;;;;;;0.20;0.10;;;18.80;61.40;20.90;93596.00;;;;10527052;27;46029;-56
2022/09/08 07:50:10;;;;;;;0.45;0.20;;;18.90;61.10;20.90;93588.00;;;;10522369;27;45187;-57
2022/09/08 07:55:37;;;;;;;0.38;0.22;;;18.80;61.40;20.90;93598.00;;;;10513853;27;45288;-57
2022/09/08 08:01:03;;;;;;;0.35;0.20;;;18.80;61.40;20.90;93616.00;;;;10528524;27;45255;-57
2022/09/08 08:06:42;;;;;;;0.17;0.10;;;18.80;61.30;20.90;93612.00;;;;10523784;27;45739;-56
2022/09/08 08:12:17;;;;;;;0.68;0.20;;;18.80;61.30;20.90;93614.00;;;;10514578;27;45247;-57
2022/09/08 08:17:45;;;;;;;0.10;0.10;;;18.80;61.20;20.90;93614.00;;;;10512693;27;45185;-56
2022/09/08 08:23:35;;;;;;;0.85;0.30;;;18.80;61.30;21.00;93637.00;;;;10526578;27;45352;-56
2022/09/08 08:29:27;;;;;;;0.60;0.10;;;18.80;61.10;21.00;93629.00;;;;10529127;27;45483;-56
2022/09/08 08:34:53;;;;;;;2.85;0.20;;;18.90;61.20;21.10;93651.00;;;;10529254;27;45390;-55
2022/09/08 08:40:32;;;;;;;0.20;0.20;;;18.90;61.30;21.10;93656.00;;;;10530885;27;45440;-58
2022/09/08 08:46:33;;;;;;;1.75;0.28;;;19.00;61.40;21.10;93664.00;;;;10522516;27;45788;-56
2022/09/08 08:52:13;;;;;;;0.35;0.28;;;19.00;61.30;21.10;93651.00;;;;10521909;27;45231;-58
2022/09/08 08:57:52;;;;;;;0.47;0.20;;;19.00;61.50;21.10;93652.00;;;;10510713;27;45859;-57
2022/09/08 09:03:35;;;;;;;1.45;0.38;;;19.00;61.50;21.10;93655.00;;;;10512124;28;45376;-58
2022/09/08 09:09:21;;;;;;;1.25;0.30;;;19.00;61.40;21.10;93649.00;;;;10510683;27;45222;-58
2022/09/08 09:15:16;;;;;;;0.40;0.10;;;19.00;61.50;21.10;93670.00;;;;10534368;27;45427;-59
2022/09/08 09:20:57;;;;;;;1.27;0.20;;;19.00;61.50;21.10;93663.00;;;;10511989;27;45127;-59
2022/09/08 09:26:20;;;;;;;0.80;0.10;;;19.00;61.50;21.10;93658.00;;;;10515345;27;45925;-58
2022/09/08 09:32:25;;;;;;;0.30;0.20;;;19.00;61.70;21.10;93666.00;;;;10553867;27;45661;-58
2022/09/08 09:38:57;;;;;;;0.15;0.10;;;18.90;61.70;21.10;93663.00;;;;10511948;27;46324;-58
2022/09/08 09:44:35;;;;;;;0.50;0.20;;;18.90;61.60;21.10;93657.00;;;;10454110;27;45253;-57
2022/09/08 09:50:38;;;;;;;1.02;0.22;;;18.90;61.50;21.00;93648.00;;;;10510887;27;45212;-58
2022/09/08 09:56:40;;;;;;;0.95;0.30;;;19.00;61.70;21.00;93653.00;;;;10510269;27;45141;-58
2022/09/08 10:02:46;;;;;;;1.25;0.20;;;18.90;61.50;21.00;93648.00;;;;10511642;27;45928;-57
2022/09/08 10:08:50;;;;;;;0.20;0.20;;;18.90;61.50;21.00;93644.00;;;;10539368;27;45730;-58
2022/09/08 10:15:04;;;;;;;0.93;0.10;;;18.90;61.50;21.10;93641.00;;;;10526518;27;45888;-57
2022/09/08 10:21:14;;;;;;;0.57;0.10;;;18.90;61.50;21.00;93638.00;;;;10513905;27;45135;-58
2022/09/08 10:27:11;;;;;;;0.25;0.20;;;18.90;61.40;21.10;93653.00;;;;10504069;27;45208;-58
2022/09/08 10:33:10;;;;;;;1.02;0.30;;;18.90;61.40;21.10;93649.00;;;;10559694;27;45861;-58
2022/09/08 10:38:51;;;;;;;1.10;0.10;;;18.90;61.40;21.10;93660.00;;;;10516974;27;45436;-58
2022/09/08 10:44:31;;;;;;;0.85;0.10;;;18.90;61.50;21.00;93633.00;;;;10541023;27;45541;-58
2022/09/08 10:50:17;;;;;;;0.80;0.28;;;18.90;61.40;21.00;93638.00;;;;10516865;27;45266;-58
2022/09/08 10:56:05;;;;;;;2.67;0.30;;;18.90;61.40;21.00;93637.00;;;;10527227;27;45837;-58
2022/09/08 11:02:09;;;;;;;0.20;0.10;;;18.90;61.40;21.00;93632.00;;;;10527131;27;45112;-58
2022/09/08 11:08:13;;;;;;;0.10;0.10;;;18.90;61.30;21.00;93620.00;;;;10521951;27;45815;-57
2022/09/08 11:13:37;;;;;;;0.47;0.20;;;19.00;61.40;21.10;93633.00;;;;10489857;27;45243;-57
2022/09/08 11:19:23;;;;;;;0.10;0.10;;;19.00;61.40;21.10;93646.00;;;;10515606;27;45870;-57
2022/09/08 11:24:59;;;;;;;0.77;0.20;;;19.00;61.40;21.10;93627.00;;;;10515949;27;45770;-57
2022/09/08 11:30:22;;;;;;;0.40;0.20;;;19.00;61.50;21.10;93625.00;;;;10553460;27;45381;-59
2022/09/08 11:36:03;;;;;;;1.10;0.10;;;19.00;61.50;21.10;93626.00;;;;10532490;27;45390;-58
2022/09/08 11:41:55;;;;;;;0.50;0.20;;;19.00;61.50;21.10;93629.00;;;;10534538;27;45505;-58
2022/09/08 11:48:00;;;;;;;0.43;0.20;;;19.00;61.60;21.20;93643.00;;;;10522339;27;45277;-58
2022/09/08 11:54:00;;;;;;;0.98;0.20;;;19.00;61.60;21.10;93650.00;;;;10515417;27;45242;-59
2022/09/08 11:59:41;;;;;;;0.40;0.15;;;19.10;61.80;21.10;93634.00;;;;10513962;27;45128;-58
2022/09/08 12:05:21;;;;;;;0.47;0.20;;;19.10;61.70;21.20;93627.00;;;;10544159;27;45704;-58
2022/09/08 12:11:12;;;;;;;1.55;0.20;;;19.10;61.70;21.20;93651.00;;;;10556747;27;45217;-58
2022/09/08 12:16:54;;;;;;;2.17;0.10;;;19.10;61.80;21.20;93644.00;;;;10531719;27;45740;-58
2022/09/08 12:22:47;;;;;;;2.63;0.40;;;19.10;61.80;21.20;93648.00;;;;10533791;27;45908;-58
2022/09/08 12:28:32;;;;;;;1.05;0.17;;;19.10;61.80;21.20;93627.00;;;;10531256;27;45738;-60
2022/09/08 12:34:23;;;;;;;0.73;0.30;;;19.10;61.80;21.30;93635.00;;;;10521789;27;45164;-58
2022/09/08 12:40:15;;;;;;;2.63;0.38;;;19.10;61.80;21.30;93630.00;;;;10515225;27;45223;-59
2022/09/08 12:46:13;;;;;;;1.95;0.50;;;19.20;61.80;21.30;93649.00;;;;10516394;27;45203;-58
2022/09/08 12:51:38;;;;;;;1.10;0.30;;;19.20;61.50;21.30;93641.00;;;;10513090;27;45267;-58
2022/09/08 12:57:28;;;;;;;2.03;0.60;;;19.20;61.70;21.30;93631.00;;;;10542377;27;45305;-58
2022/09/08 13:03:18;;;;;;;0.80;0.30;;;19.20;61.60;21.30;93643.00;;;;10555277;27;45822;-59
2022/09/08 13:09:07;;;;;;;3.75;1.00;;;19.20;61.60;21.30;93654.00;;;;10554163;27;45252;-58
2022/09/08 13:14:51;;;;;;;2.72;0.47;;;19.20;61.60;21.30;93648.00;;;;10549915;27;45247;-58
2022/09/08 13:20:22;;;;;;;1.48;0.52;;;19.20;61.60;21.30;93652.00;;;;10534360;27;45148;-58
2022/09/08 13:25:55;;;;;;;2.78;0.70;;;19.20;61.60;21.30;93644.00;;;;10511528;27;45823;-58
2022/09/08 13:31:32;;;;;;;3.67;0.77;;;19.20;61.60;21.40;93655.00;;;;10535145;27;45497;-58
2022/09/08 13:37:06;;;;;;;2.33;0.90;;;19.20;61.70;21.40;93647.00;;;;10514889;27;45222;-58
2022/09/08 13:42:51;;;;;;;3.60;0.60;;;19.30;61.60;21.40;93651.00;;;;10531728;27;45315;-58
2022/09/08 13:48:39;;;;;;;2.40;0.60;;;19.30;61.50;21.40;93653.00;;;;10520567;27;45877;-58
2022/09/08 13:54:26;;;;;;;2.03;0.55;;;19.30;61.30;21.40;93624.00;;;;10511346;27;45206;-58
2022/09/08 14:00:02;;;;;;;2.00;0.50;;;19.30;61.40;21.40;93652.00;;;;10515357;27;45253;-58
2022/09/08 14:05:33;;;;;;;2.17;0.65;;;19.30;61.40;21.50;93635.00;;;;10517602;27;45241;-58
2022/09/08 14:11:11;;;;;;;2.10;0.63;;;19.30;61.40;21.50;93637.00;;;;10516463;27;45228;-57
2022/09/08 14:16:34;;;;;;;1.27;0.55;;;19.40;61.50;21.50;93633.00;;;;10524769;27;45722;-58
2022/09/08 14:22:10;;;;;;;2.35;0.80;;;19.40;61.50;21.50;93634.00;;;;10538981;27;45870;-58
2022/09/08 14:27:55;;;;;;;1.83;0.60;;;19.40;61.50;21.50;93619.00;;;;10530213;27;45542;-58
2022/09/08 14:33:31;;;;;;;2.85;0.57;;;19.40;61.50;21.50;93621.00;;;;10556259;27;45248;-58
2022/09/08 14:39:12;;;;;;;1.40;0.43;;;19.40;61.50;21.50;93612.00;;;;10516285;27;45688;-59
2022/09/08 14:45:00;;;;;;;1.60;0.45;;;19.40;61.50;21.50;93625.00;;;;10517097;27;45873;-58
2022/09/08 14:50:27;;;;;;;2.30;0.40;;;19.40;62.20;21.50;93629.00;;;;10545004;27;45191;-58
2022/09/08 14:55:57;;;;;;;1.95;0.60;;;19.40;61.50;21.50;93627.00;;;;10543205;27;45236;-58
2022/09/08 15:01:31;;;;;;;3.75;0.73;;;19.40;61.30;21.50;93630.00;;;;10538202;27;45179;-58
2022/09/08 15:06:59;;;;;;;1.77;0.55;;;19.40;61.40;21.50;93636.00;;;;10528480;27;45436;-58
2022/09/08 15:12:42;;;;;;;1.83;0.57;;;19.40;61.30;21.60;93630.00;;;;10529568;27;45399;-56
2022/09/08 15:18:31;;;;;;;1.58;0.35;;;19.50;61.20;21.70;93623.00;;;;10527457;27;45481;-57
2022/09/08 15:23:57;;;;;;;2.03;0.50;;;19.60;60.70;21.70;93623.00;;;;10533724;27;45242;-56
2022/09/08 15:29:38;;;;;;;2.15;0.60;;;19.70;60.70;21.80;93623.00;;;;10543783;27;45177;-56
2022/09/08 15:35:37;;;;;;;2.15;0.40;;;19.70;60.70;21.80;93605.00;;;;10524625;27;45270;-57
2022/09/08 15:41:21;;;;;;;0.98;0.38;;;19.70;60.60;21.80;93612.00;;;;10534197;27;45117;-57
2022/09/08 15:46:56;;;;;;;0.50;0.20;;;19.80;60.60;21.90;93621.00;;;;10517344;27;45509;-57
2022/09/08 15:53:11;;;;;;;1.63;0.60;;;19.80;60.60;21.90;93622.00;;;;10519360;27;45171;-56
2022/09/08 15:58:36;;;;;;;2.30;0.30;;;19.80;60.60;21.90;93617.00;;;;10507146;27;45705;-56
2022/09/08 16:04:15;;;;;;;2.20;0.50;;;19.80;60.60;21.90;93614.00;;;;10523611;27;45149;-57
2022/09/08 16:10:02;;;;;;;1.15;0.40;;;19.90;60.60;22.00;93598.00;;;;10547322;27;45162;-56
2022/09/08 16:15:40;;;;;;;0.90;0.40;;;19.90;60.50;22.00;93604.00;;;;10513428;27;45429;-56
2022/09/08 16:21:12;;;;;;;0.68;0.20;;;19.90;60.50;22.00;93595.00;;;;10532750;27;45789;-56
2022/09/08 16:26:46;;;;;;;0.35;0.25;;;19.90;60.40;22.00;93590.00;;;;10533988;27;45623;-57
2022/09/08 16:32:13;;;;;;;1.35;0.52;;;19.90;60.50;22.00;93595.00;;;;10552312;27;45362;-57
2022/09/08 16:37:40;;;;;;;;;;;19.90;60.20;22.00;93601.00;;;;10531833;27;45737;-57
2022/09/08 16:43:06;;;;;;;1.23;0.38;;;20.00;60.30;22.00;93605.00;;;;10514838;27;45599;-56
2022/09/08 16:48:38;;;;;;;1.60;0.30;;;20.00;60.30;21.90;93607.00;;;;10511830;27;45163;-57
2022/09/08 16:54:05;;;;;;;0.80;0.28;;;19.90;60.30;21.90;93612.00;;;;10524957;27;45174;-57
2022/09/08 16:59:39;;;;;;;2.40;0.30;;;19.90;60.50;21.90;93602.00;;;;10528421;27;45167;-57
2022/09/08 17:05:29;;;;;;;1.67;0.30;;;19.80;60.50;21.90;93596.00;;;;10521518;27;45357;-57
2022/09/08 17:11:00;;;;;;;1.65;0.30;;;19.80;60.70;21.90;93599.00;;;;10511416;27;46135;-57
2022/09/08 17:17:06;;;;;;;0.85;0.30;;;19.80;60.70;21.90;93596.00;;;;10541984;27;45700;-57
2022/09/08 17:22:59;;;;;;;0.35;0.20;;;19.80;60.80;21.90;93608.00;;;;10512103;27;45464;-57
2022/09/08 17:29:19;;;;;;;0.82;0.30;;;19.80;60.80;21.90;93599.00;;;;10530346;27;45229;-57
2022/09/08 17:34:44;;;;;;;0.85;0.20;;;19.80;60.80;21.90;93588.00;;;;10541212;27;45699;-57
2022/09/08 17:40:24;;;;;;;1.42;0.30;;;19.80;60.90;21.90;93585.00;;;;10533110;27;45716;-57
2022/09/08 17:45:54;;;;;;;0.80;0.30;;;19.80;60.70;21.90;93592.00;;;;10541028;27;45238;-57
2022/09/08 17:51:20;;;;;;;0.38;0.15;;;19.70;60.50;21.90;93609.00;;;;10543680;27;45442;-57
2022/09/08 17:56:58;;;;;;;1.70;0.30;;;19.70;60.60;21.80;93607.00;;;;10509684;27;45168;-56
2022/09/08 18:02:46;;;;;;;0.60;0.20;;;19.70;60.30;21.90;93611.00;;;;10510727;27;45522;-57
2022/09/08 18:08:25;;;;;;;0.35;0.20;;;19.70;60.50;21.80;93610.00;;;;10531892;27;45209;-57
2022/09/08 18:13:47;;;;;;;1.25;0.30;;;19.70;60.40;21.90;93611.00;;;;10526911;27;45213;-57
2022/09/08 18:19:23;;;;;;;0.40;0.25;;;19.70;60.60;21.80;93609.00;;;;10513026;27;45257;-58
2022/09/08 18:24:44;;;;;;;0.93;0.20;;;19.70;60.30;21.80;93624.00;;;;10523943;27;45335;-57
2022/09/08 18:30:18;;;;;;;1.52;0.30;;;19.70;60.00;21.80;93630.00;;;;10546827;27;45471;-58
2022/09/08 18:36:06;;;;;;;0.35;0.10;;;19.60;60.10;21.70;93623.00;;;;10529063;27;45425;-58
2022/09/08 18:41:40;;;;;;;1.95;0.13;;;19.60;60.00;21.70;93643.00;;;;10513602;27;46054;-59
2022/09/08 18:47:14;;;;;;;0.57;0.22;;;19.60;60.10;21.70;93648.00;;;;10516436;27;45145;-59
2022/09/08 18:52:46;;;;;;;0.35;0.10;;;19.50;60.10;21.70;93648.00;;;;10517010;27;45186;-59
2022/09/08 18:58:46;;;;;;;0.30;0.10;;;19.50;60.10;21.70;93659.00;;;;10515321;27;45696;-58
2022/09/08 19:04:13;;;;;;;0.57;0.13;;;19.50;60.10;21.60;93668.00;;;;10506661;27;45155;-58
2022/09/08 19:09:50;;;;;;;0.50;0.43;;;19.50;60.20;21.60;93653.00;;;;10515918;27;45091;-57
2022/09/08 19:15:26;;;;;;;0.70;0.20;;;19.50;60.20;21.60;93668.00;;;;10542251;27;45833;-57
2022/09/08 19:20:55;;;;;;;0.57;0.30;;;19.40;60.10;21.60;93663.00;;;;10516165;27;45462;-58
2022/09/08 19:26:40;;;;;;;0.90;0.32;;;19.40;60.20;21.60;93678.00;;;;10545523;27;45204;-57
2022/09/08 19:32:13;;;;;;;0.90;0.10;;;19.40;60.20;21.60;93677.00;;;;10557716;27;45208;-57
2022/09/08 19:37:41;;;;;;;0.38;0.20;;;19.40;60.20;21.60;93700.00;;;;10517190;27;45269;-58
2022/09/08 19:43:15;;;;;;;0.68;0.25;;;19.40;60.30;21.60;93698.00;;;;10515568;27;45184;-58
2022/09/08 19:48:49;;;;;;;0.32;0.17;;;19.40;60.10;21.50;93694.00;;;;10521002;27;45220;-58
2022/09/08 19:54:38;;;;;;;0.50;0.15;;;19.40;60.20;21.50;93688.00;;;;10556608;27;45163;-57
2022/09/08 20:00:03;;;;;;;0.40;0.20;;;19.40;60.10;21.50;93705.00;;;;10555574;27;45676;-58
2022/09/08 20:05:25;;;;;;;1.38;0.20;;;19.40;60.10;21.50;93705.00;;;;10555971;27;45238;-58
2022/09/08 20:10:50;;;;;;;0.47;0.10;;;19.30;60.10;21.50;93703.00;;;;10556676;27;45254;-58
2022/09/08 20:16:19;;;;;;;1.70;0.20;;;19.30;60.10;21.50;93708.00;;;;10527171;27;45193;-58
2022/09/08 20:21:52;;;;;;;0.28;0.10;;;19.30;60.10;21.50;93707.00;;;;10513860;27;45869;-58
2022/09/08 20:27:35;;;;;;;0.75;0.20;;;19.30;60.00;21.50;93718.00;;;;10523979;27;45206;-58
2022/09/08 20:33:19;;;;;;;0.10;0.10;;;19.30;60.10;21.50;93698.00;;;;10553493;27;45796;-58
2022/09/08 20:39:42;;;;;;;0.77;0.20;;;19.30;60.00;21.40;93706.00;;;;10509556;27;45180;-57
2022/09/08 20:45:16;;;;;;;0.30;0.20;;;19.30;60.00;21.40;93709.00;;;;10513632;27;45420;-57
2022/09/08 20:50:45;;;;;;;1.00;0.17;;;19.30;59.90;21.40;93695.00;;;;10526766;27;45938;-57
2022/09/08 20:56:15;;;;;;;0.52;0.20;;;19.30;59.90;21.40;93709.00;;;;10512365;27;45248;-58
2022/09/08 21:01:39;;;;;;;0.17;0.10;;;19.20;59.80;21.40;93710.00;;;;10540057;27;45310;-58
2022/09/08 21:06:59;;;;;;;0.30;0.10;;;19.20;59.80;21.40;93713.00;;;;10553374;27;45138;-57
2022/09/08 21:12:22;;;;;;;0.20;0.10;;;19.20;59.80;21.40;93706.00;;;;10547724;27;45198;-58
2022/09/08 21:17:47;;;;;;;0.43;0.15;;;19.20;59.70;21.40;93704.00;;;;10525725;27;45722;-57
2022/09/08 21:23:15;;;;;;;1.13;0.20;;;19.20;59.70;21.40;93694.00;;;;10512197;27;45205;-58
2022/09/08 21:28:46;;;;;;;0.32;0.10;;;19.20;59.70;21.30;93697.00;;;;10511173;27;45325;-58
2022/09/08 21:34:28;;;;;;;0.40;0.10;;;19.20;59.70;21.40;93705.00;;;;10530493;27;45774;-58
2022/09/08 21:40:01;;;;;;;0.65;0.20;;;19.20;59.70;21.30;93703.00;;;;10512306;28;45233;-58
2022/09/08 21:45:26;;;;;;;0.43;0.20;;;19.20;59.60;21.40;93699.00;;;;10511712;27;45412;-58
2022/09/08 21:50:56;;;;;;;0.47;0.10;;;19.20;59.50;21.30;93688.00;;;;10512131;28;45233;-58
2022/09/08 21:56:21;;;;;;;0.63;0.30;;;19.20;59.60;21.30;93705.00;;;;10511368;27;45189;-58
2022/09/08 22:01:54;;;;;;;0.40;0.20;;;19.20;59.50;21.30;93692.00;;;;10540274;27;45359;-57
2022/09/08 22:07:26;;;;;;;0.25;0.15;;;19.10;59.40;21.30;93694.00;;;;10553658;27;45209;-58
2022/09/08 22:12:53;;;;;;;1.33;0.20;;;19.20;59.50;21.30;93700.00;;;;10546704;27;45115;-58
2022/09/08 22:18:17;;;;;;;0.73;0.30;;;19.20;59.50;21.30;93687.00;;;;10526646;27;45679;-58
2022/09/08 22:23:51;;;;;;;0.63;0.35;;;19.10;59.30;21.30;93697.00;;;;10518493;28;45147;-58
2022/09/08 22:29:24;;;;;;;0.10;0.10;;;19.10;59.30;21.20;93695.00;;;;10544941;27;45226;-59
2022/09/08 22:34:57;;;;;;;0.63;0.10;;;19.10;59.30;21.20;93685.00;;;;10517342;27;45689;-58
2022/09/08 22:40:46;;;;;;;1.05;0.30;;;19.20;59.40;21.20;93695.00;;;;10517433;28;45516;-58
2022/09/08 22:46:13;;;;;;;1.52;0.10;;;19.10;59.30;21.20;93691.00;;;;10517421;28;45246;-57
2022/09/08 22:51:41;;;;;;;0.50;0.30;;;19.10;59.30;21.20;93683.00;;;;10531378;27;46341;-58
2022/09/08 22:57:04;;;;;;;0.38;0.20;;;19.10;59.30;21.20;93692.00;;;;10515455;28;45144;-57
2022/09/08 23:02:29;;;;;;;0.55;0.20;;;19.10;59.20;21.20;93699.00;;;;10517126;28;45281;-58
2022/09/08 23:07:52;;;;;;;0.40;0.10;;;19.10;59.30;21.20;93691.00;;;;10517244;28;45094;-58
2022/09/08 23:13:23;;;;;;;0.57;0.10;;;19.00;59.10;21.20;93693.00;;;;10522126;27;45923;-57
2022/09/08 23:18:51;;;;;;;0.20;0.10;;;19.10;59.20;21.20;93697.00;;;;10553254;27;45198;-58
2022/09/08 23:24:37;;;;;;;0.80;0.20;;;19.10;59.10;21.20;93680.00;;;;10546206;27;45441;-59
2022/09/08 23:30:15;;;;;;;0.52;0.10;;;19.10;59.20;21.20;93677.00;;;;10550068;27;45135;-58
2022/09/08 23:35:42;;;;;;;0.32;0.10;;;19.00;59.10;21.20;93688.00;;;;10535121;27;45683;-57
2022/09/08 23:41:02;;;;;;;;;;;19.00;59.20;21.20;93695.00;;;;10516268;27;45433;-58
2022/09/08 23:46:31;;;;;;;0.20;0.10;;;19.00;59.00;21.20;93682.00;;;;10515334;27;45384;-57
2022/09/08 23:52:01;;;;;;;0.40;0.32;;;19.00;59.10;21.20;93689.00;;;;10529297;27;45257;-58
2022/09/08 23:57:22;;;;;;;0.45;0.10;;;19.00;59.00;21.20;93683.00;;;;10514195;27;45156;-58
